sensor_id;sensor_type;location;lat;lon;timestamp;P1;durP1;ratioP1;P2;durP2;ratioP2
17812;SDS011;9030;50.792;8.320;2023-07-30T00:00:54;12.05;;;5.60;;
17812;SDS011;9030;50.792;8.320;2023-07-30T00:03:21;11.73;;;5.80;;
17812;SDS011;9030;50.792;8.320;2023-07-30T00:05:54;9.05;;;4.70;;
17812;SDS011;9030;50.792;8.320;2023-07-30T00:08:20;9.82;;;5.15;;
17812;SDS011;9030;50.792;8.320;2023-07-30T00:10:48;10.52;;;4.50;;
17812;SDS011;9030;50.792;8.320;2023-07-30T00:13:15;10.00;;;4.90;;
17812;SDS011;9030;50.792;8.320;2023-07-30T00:15:42;6.95;;;4.07;;
17812;SDS011;9030;50.792;8.320;2023-07-30T00:18:09;11.15;;;4.68;;
17812;SDS011;9030;50.792;8.320;2023-07-30T00:20:35;9.30;;;4.45;;
17812;SDS011;9030;50.792;8.320;2023-07-30T00:23:02;9.45;;;4.40;;
17812;SDS011;9030;50.792;8.320;2023-07-30T00:25:28;12.45;;;5.38;;
17812;SDS011;9030;50.792;8.320;2023-07-30T00:27:56;9.80;;;4.47;;
17812;SDS011;9030;50.792;8.320;2023-07-30T00:30:23;7.90;;;5.75;;
17812;SDS011;9030;50.792;8.320;2023-07-30T00:32:50;10.45;;;4.88;;
17812;SDS011;9030;50.792;8.320;2023-07-30T00:35:16;9.68;;;5.45;;
17812;SDS011;9030;50.792;8.320;2023-07-30T00:37:43;6.82;;;4.68;;
17812;SDS011;9030;50.792;8.320;2023-07-30T00:40:10;8.30;;;4.80;;
17812;SDS011;9030;50.792;8.320;2023-07-30T00:42:37;10.90;;;5.00;;
17812;SDS011;9030;50.792;8.320;2023-07-30T00:45:06;11.52;;;5.28;;
17812;SDS011;9030;50.792;8.320;2023-07-30T00:47:34;9.23;;;4.60;;
17812;SDS011;9030;50.792;8.320;2023-07-30T00:50:01;10.07;;;5.05;;
17812;SDS011;9030;50.792;8.320;2023-07-30T00:52:27;7.55;;;4.35;;
17812;SDS011;9030;50.792;8.320;2023-07-30T00:54:55;11.30;;;5.35;;
17812;SDS011;9030;50.792;8.320;2023-07-30T00:57:23;9.23;;;4.90;;
17812;SDS011;9030;50.792;8.320;2023-07-30T00:59:50;10.30;;;6.80;;
17812;SDS011;9030;50.792;8.320;2023-07-30T01:02:19;7.97;;;5.20;;
17812;SDS011;9030;50.792;8.320;2023-07-30T01:04:47;9.65;;;5.63;;
17812;SDS011;9030;50.792;8.320;2023-07-30T01:07:16;11.27;;;6.57;;
17812;SDS011;9030;50.792;8.320;2023-07-30T01:09:43;9.88;;;5.65;;
17812;SDS011;9030;50.792;8.320;2023-07-30T01:12:10;10.18;;;5.68;;
17812;SDS011;9030;50.792;8.320;2023-07-30T01:14:37;11.75;;;5.78;;
17812;SDS011;9030;50.792;8.320;2023-07-30T01:17:04;10.57;;;5.85;;
17812;SDS011;9030;50.792;8.320;2023-07-30T01:19:32;8.25;;;5.55;;
17812;SDS011;9030;50.792;8.320;2023-07-30T01:22:00;11.05;;;6.15;;
17812;SDS011;9030;50.792;8.320;2023-07-30T01:24:27;14.48;;;7.32;;
17812;SDS011;9030;50.792;8.320;2023-07-30T01:26:55;12.82;;;6.82;;
17812;SDS011;9030;50.792;8.320;2023-07-30T01:29:27;9.70;;;6.57;;
17812;SDS011;9030;50.792;8.320;2023-07-30T01:32:10;15.57;;;7.30;;
17812;SDS011;9030;50.792;8.320;2023-07-30T01:34:38;10.75;;;6.60;;
17812;SDS011;9030;50.792;8.320;2023-07-30T01:37:08;11.55;;;7.22;;
17812;SDS011;9030;50.792;8.320;2023-07-30T01:39:39;9.25;;;6.57;;
17812;SDS011;9030;50.792;8.320;2023-07-30T01:42:07;9.32;;;6.68;;
17812;SDS011;9030;50.792;8.320;2023-07-30T01:44:34;12.10;;;8.32;;
17812;SDS011;9030;50.792;8.320;2023-07-30T01:47:00;10.25;;;8.30;;
17812;SDS011;9030;50.792;8.320;2023-07-30T01:49:27;12.15;;;7.90;;
17812;SDS011;9030;50.792;8.320;2023-07-30T01:51:54;10.63;;;7.55;;
17812;SDS011;9030;50.792;8.320;2023-07-30T01:54:22;9.88;;;7.22;;
17812;SDS011;9030;50.792;8.320;2023-07-30T01:56:48;8.80;;;6.20;;
17812;SDS011;9030;50.792;8.320;2023-07-30T01:59:15;8.93;;;6.47;;
17812;SDS011;9030;50.792;8.320;2023-07-30T02:01:42;9.45;;;6.60;;
17812;SDS011;9030;50.792;8.320;2023-07-30T02:04:09;8.70;;;6.18;;
17812;SDS011;9030;50.792;8.320;2023-07-30T02:06:36;9.10;;;6.15;;
17812;SDS011;9030;50.792;8.320;2023-07-30T02:09:03;10.80;;;6.57;;
17812;SDS011;9030;50.792;8.320;2023-07-30T02:11:31;10.98;;;5.88;;
17812;SDS011;9030;50.792;8.320;2023-07-30T02:13:57;16.10;;;6.75;;
17812;SDS011;9030;50.792;8.320;2023-07-30T02:16:24;11.23;;;5.93;;
17812;SDS011;9030;50.792;8.320;2023-07-30T02:18:50;8.95;;;6.03;;
17812;SDS011;9030;50.792;8.320;2023-07-30T02:21:17;10.48;;;5.90;;
17812;SDS011;9030;50.792;8.320;2023-07-30T02:23:44;10.60;;;6.43;;
17812;SDS011;9030;50.792;8.320;2023-07-30T02:26:10;8.65;;;5.65;;
17812;SDS011;9030;50.792;8.320;2023-07-30T02:28:38;10.23;;;6.47;;
17812;SDS011;9030;50.792;8.320;2023-07-30T02:31:05;13.40;;;5.95;;
17812;SDS011;9030;50.792;8.320;2023-07-30T02:33:31;12.40;;;5.70;;
17812;SDS011;9030;50.792;8.320;2023-07-30T02:35:58;16.25;;;5.95;;
17812;SDS011;9030;50.792;8.320;2023-07-30T02:38:25;8.68;;;5.22;;
17812;SDS011;9030;50.792;8.320;2023-07-30T02:40:51;8.27;;;5.22;;
17812;SDS011;9030;50.792;8.320;2023-07-30T02:43:18;11.45;;;6.00;;
17812;SDS011;9030;50.792;8.320;2023-07-30T02:45:47;14.07;;;5.75;;
17812;SDS011;9030;50.792;8.320;2023-07-30T02:48:14;10.70;;;6.13;;
17812;SDS011;9030;50.792;8.320;2023-07-30T02:50:41;8.52;;;5.85;;
17812;SDS011;9030;50.792;8.320;2023-07-30T02:53:08;11.75;;;6.63;;
17812;SDS011;9030;50.792;8.320;2023-07-30T02:55:35;8.82;;;6.18;;
17812;SDS011;9030;50.792;8.320;2023-07-30T02:58:01;11.88;;;6.47;;
17812;SDS011;9030;50.792;8.320;2023-07-30T03:00:28;11.85;;;6.68;;
17812;SDS011;9030;50.792;8.320;2023-07-30T03:02:56;11.68;;;7.80;;
17812;SDS011;9030;50.792;8.320;2023-07-30T03:05:23;12.50;;;7.28;;
17812;SDS011;9030;50.792;8.320;2023-07-30T03:07:49;9.95;;;7.43;;
17812;SDS011;9030;50.792;8.320;2023-07-30T03:10:16;14.73;;;8.32;;
17812;SDS011;9030;50.792;8.320;2023-07-30T03:12:43;10.38;;;7.18;;
17812;SDS011;9030;50.792;8.320;2023-07-30T03:15:09;12.48;;;7.00;;
17812;SDS011;9030;50.792;8.320;2023-07-30T03:17:36;13.00;;;8.35;;
17812;SDS011;9030;50.792;8.320;2023-07-30T03:20:04;11.30;;;7.90;;
17812;SDS011;9030;50.792;8.320;2023-07-30T03:22:32;11.57;;;6.57;;
17812;SDS011;9030;50.792;8.320;2023-07-30T03:24:59;13.15;;;8.30;;
17812;SDS011;9030;50.792;8.320;2023-07-30T03:27:25;11.00;;;7.75;;
17812;SDS011;9030;50.792;8.320;2023-07-30T03:29:52;12.80;;;7.18;;
17812;SDS011;9030;50.792;8.320;2023-07-30T03:32:18;12.00;;;7.55;;
17812;SDS011;9030;50.792;8.320;2023-07-30T03:34:45;11.95;;;9.27;;
17812;SDS011;9030;50.792;8.320;2023-07-30T03:37:13;14.07;;;8.00;;
17812;SDS011;9030;50.792;8.320;2023-07-30T03:39:40;14.40;;;8.35;;
17812;SDS011;9030;50.792;8.320;2023-07-30T03:42:06;10.63;;;6.82;;
17812;SDS011;9030;50.792;8.320;2023-07-30T03:44:33;10.68;;;7.35;;
17812;SDS011;9030;50.792;8.320;2023-07-30T03:46:59;13.05;;;8.82;;
17812;SDS011;9030;50.792;8.320;2023-07-30T03:49:26;12.77;;;6.78;;
17812;SDS011;9030;50.792;8.320;2023-07-30T03:51:53;11.07;;;7.43;;
17812;SDS011;9030;50.792;8.320;2023-07-30T03:54:21;14.32;;;8.05;;
17812;SDS011;9030;50.792;8.320;2023-07-30T03:56:46;13.50;;;7.80;;
17812;SDS011;9030;50.792;8.320;2023-07-30T03:59:13;12.70;;;7.82;;
17812;SDS011;9030;50.792;8.320;2023-07-30T04:01:40;11.65;;;7.03;;
17812;SDS011;9030;50.792;8.320;2023-07-30T04:04:06;8.70;;;6.55;;
17812;SDS011;9030;50.792;8.320;2023-07-30T04:06:33;12.20;;;6.68;;
17812;SDS011;9030;50.792;8.320;2023-07-30T04:08:59;9.73;;;7.43;;
17812;SDS011;9030;50.792;8.320;2023-07-30T04:11:27;13.77;;;7.30;;
17812;SDS011;9030;50.792;8.320;2023-07-30T04:13:54;10.95;;;6.55;;
17812;SDS011;9030;50.792;8.320;2023-07-30T04:16:21;13.10;;;6.97;;
17812;SDS011;9030;50.792;8.320;2023-07-30T04:18:47;11.25;;;8.07;;
17812;SDS011;9030;50.792;8.320;2023-07-30T04:21:14;10.13;;;6.72;;
17812;SDS011;9030;50.792;8.320;2023-07-30T04:23:41;8.93;;;5.93;;
17812;SDS011;9030;50.792;8.320;2023-07-30T04:26:07;13.52;;;6.50;;
17812;SDS011;9030;50.792;8.320;2023-07-30T04:28:35;11.93;;;6.60;;
17812;SDS011;9030;50.792;8.320;2023-07-30T04:31:02;10.18;;;6.90;;
17812;SDS011;9030;50.792;8.320;2023-07-30T04:33:29;12.63;;;6.63;;
17812;SDS011;9030;50.792;8.320;2023-07-30T04:35:55;8.88;;;5.93;;
17812;SDS011;9030;50.792;8.320;2023-07-30T04:38:22;15.90;;;7.18;;
17812;SDS011;9030;50.792;8.320;2023-07-30T04:40:49;8.20;;;5.28;;
17812;SDS011;9030;50.792;8.320;2023-07-30T04:43:16;14.70;;;5.70;;
17812;SDS011;9030;50.792;8.320;2023-07-30T04:45:44;9.98;;;5.32;;
17812;SDS011;9030;50.792;8.320;2023-07-30T04:48:11;10.85;;;5.55;;
17812;SDS011;9030;50.792;8.320;2023-07-30T04:50:37;12.05;;;7.00;;
17812;SDS011;9030;50.792;8.320;2023-07-30T04:53:06;10.40;;;6.57;;
17812;SDS011;9030;50.792;8.320;2023-07-30T04:55:33;11.30;;;6.05;;
17812;SDS011;9030;50.792;8.320;2023-07-30T04:58:00;10.77;;;6.57;;
17812;SDS011;9030;50.792;8.320;2023-07-30T05:00:27;9.10;;;6.28;;
17812;SDS011;9030;50.792;8.320;2023-07-30T05:02:55;12.13;;;6.60;;
17812;SDS011;9030;50.792;8.320;2023-07-30T05:05:22;12.02;;;6.47;;
17812;SDS011;9030;50.792;8.320;2023-07-30T05:07:48;14.38;;;7.15;;
17812;SDS011;9030;50.792;8.320;2023-07-30T05:10:15;10.73;;;5.47;;
17812;SDS011;9030;50.792;8.320;2023-07-30T05:12:42;9.52;;;6.32;;
17812;SDS011;9030;50.792;8.320;2023-07-30T05:15:08;12.98;;;5.70;;
17812;SDS011;9030;50.792;8.320;2023-07-30T05:17:35;12.40;;;6.10;;
17812;SDS011;9030;50.792;8.320;2023-07-30T05:20:03;10.23;;;6.40;;
17812;SDS011;9030;50.792;8.320;2023-07-30T05:22:31;12.10;;;5.75;;
17812;SDS011;9030;50.792;8.320;2023-07-30T05:24:58;9.02;;;4.65;;
17812;SDS011;9030;50.792;8.320;2023-07-30T05:27:24;7.47;;;4.15;;
17812;SDS011;9030;50.792;8.320;2023-07-30T05:29:53;7.57;;;4.18;;
17812;SDS011;9030;50.792;8.320;2023-07-30T05:32:19;12.15;;;4.60;;
17812;SDS011;9030;50.792;8.320;2023-07-30T05:34:46;8.93;;;4.78;;
17812;SDS011;9030;50.792;8.320;2023-07-30T05:37:14;9.70;;;4.75;;
17812;SDS011;9030;50.792;8.320;2023-07-30T05:39:41;18.35;;;4.60;;
17812;SDS011;9030;50.792;8.320;2023-07-30T05:42:07;9.30;;;3.58;;
17812;SDS011;9030;50.792;8.320;2023-07-30T05:44:34;8.27;;;3.63;;
17812;SDS011;9030;50.792;8.320;2023-07-30T05:47:01;7.53;;;3.90;;
17812;SDS011;9030;50.792;8.320;2023-07-30T05:49:27;7.38;;;3.35;;
17812;SDS011;9030;50.792;8.320;2023-07-30T05:51:54;9.93;;;3.88;;
17812;SDS011;9030;50.792;8.320;2023-07-30T05:54:22;6.45;;;3.17;;
17812;SDS011;9030;50.792;8.320;2023-07-30T05:56:49;6.85;;;3.53;;
17812;SDS011;9030;50.792;8.320;2023-07-30T05:59:15;7.20;;;2.95;;
17812;SDS011;9030;50.792;8.320;2023-07-30T06:01:42;11.57;;;3.63;;
17812;SDS011;9030;50.792;8.320;2023-07-30T06:04:09;11.05;;;3.08;;
17812;SDS011;9030;50.792;8.320;2023-07-30T06:06:35;8.35;;;3.17;;
17812;SDS011;9030;50.792;8.320;2023-07-30T06:09:02;9.98;;;2.83;;
17812;SDS011;9030;50.792;8.320;2023-07-30T06:11:30;10.18;;;3.03;;
17812;SDS011;9030;50.792;8.320;2023-07-30T06:13:56;9.93;;;3.38;;
17812;SDS011;9030;50.792;8.320;2023-07-30T06:16:23;6.43;;;2.90;;
17812;SDS011;9030;50.792;8.320;2023-07-30T06:18:50;9.30;;;3.25;;
17812;SDS011;9030;50.792;8.320;2023-07-30T06:21:16;7.75;;;2.88;;
17812;SDS011;9030;50.792;8.320;2023-07-30T06:23:43;9.27;;;2.97;;
17812;SDS011;9030;50.792;8.320;2023-07-30T06:26:10;11.73;;;3.45;;
17812;SDS011;9030;50.792;8.320;2023-07-30T06:28:38;7.72;;;2.53;;
17812;SDS011;9030;50.792;8.320;2023-07-30T06:31:04;10.88;;;3.40;;
17812;SDS011;9030;50.792;8.320;2023-07-30T06:33:31;7.57;;;3.40;;
17812;SDS011;9030;50.792;8.320;2023-07-30T06:35:57;9.15;;;3.88;;
17812;SDS011;9030;50.792;8.320;2023-07-30T06:38:24;7.40;;;2.83;;
17812;SDS011;9030;50.792;8.320;2023-07-30T06:40:51;10.90;;;3.80;;
17812;SDS011;9030;50.792;8.320;2023-07-30T06:43:17;10.27;;;2.97;;
17812;SDS011;9030;50.792;8.320;2023-07-30T06:45:45;8.90;;;3.40;;
17812;SDS011;9030;50.792;8.320;2023-07-30T06:48:12;13.15;;;3.40;;
17812;SDS011;9030;50.792;8.320;2023-07-30T06:50:40;11.43;;;3.65;;
17812;SDS011;9030;50.792;8.320;2023-07-30T06:53:07;12.70;;;3.38;;
17812;SDS011;9030;50.792;8.320;2023-07-30T06:55:33;13.40;;;3.60;;
17812;SDS011;9030;50.792;8.320;2023-07-30T06:58:00;10.38;;;3.75;;
17812;SDS011;9030;50.792;8.320;2023-07-30T07:00:26;9.40;;;3.22;;
17812;SDS011;9030;50.792;8.320;2023-07-30T07:02:54;9.82;;;2.92;;
17812;SDS011;9030;50.792;8.320;2023-07-30T07:05:21;12.43;;;4.15;;
17812;SDS011;9030;50.792;8.320;2023-07-30T07:07:48;7.38;;;3.38;;
17812;SDS011;9030;50.792;8.320;2023-07-30T07:10:14;10.65;;;3.42;;
17812;SDS011;9030;50.792;8.320;2023-07-30T07:12:41;10.30;;;3.47;;
17812;SDS011;9030;50.792;8.320;2023-07-30T07:15:08;9.23;;;3.15;;
17812;SDS011;9030;50.792;8.320;2023-07-30T07:17:35;9.85;;;2.88;;
17812;SDS011;9030;50.792;8.320;2023-07-30T07:20:03;8.40;;;3.17;;
17812;SDS011;9030;50.792;8.320;2023-07-30T07:22:32;9.85;;;3.40;;
17812;SDS011;9030;50.792;8.320;2023-07-30T07:24:59;11.27;;;3.40;;
17812;SDS011;9030;50.792;8.320;2023-07-30T07:27:25;8.07;;;3.60;;
17812;SDS011;9030;50.792;8.320;2023-07-30T07:29:52;11.85;;;4.53;;
17812;SDS011;9030;50.792;8.320;2023-07-30T07:32:19;10.65;;;2.70;;
17812;SDS011;9030;50.792;8.320;2023-07-30T07:34:46;10.00;;;3.72;;
17812;SDS011;9030;50.792;8.320;2023-07-30T07:37:14;10.40;;;3.80;;
17812;SDS011;9030;50.792;8.320;2023-07-30T07:39:43;12.30;;;3.78;;
17812;SDS011;9030;50.792;8.320;2023-07-30T07:42:10;7.85;;;2.90;;
17812;SDS011;9030;50.792;8.320;2023-07-30T07:44:37;7.57;;;2.70;;
17812;SDS011;9030;50.792;8.320;2023-07-30T07:47:04;8.02;;;2.45;;
17812;SDS011;9030;50.792;8.320;2023-07-30T07:49:30;13.45;;;2.85;;
17812;SDS011;9030;50.792;8.320;2023-07-30T07:51:57;11.93;;;3.05;;
17812;SDS011;9030;50.792;8.320;2023-07-30T07:54:25;14.05;;;2.63;;
17812;SDS011;9030;50.792;8.320;2023-07-30T07:56:51;9.13;;;2.60;;
17812;SDS011;9030;50.792;8.320;2023-07-30T07:59:18;7.55;;;2.05;;
17812;SDS011;9030;50.792;8.320;2023-07-30T08:01:45;7.78;;;2.33;;
17812;SDS011;9030;50.792;8.320;2023-07-30T08:04:11;9.32;;;2.58;;
17812;SDS011;9030;50.792;8.320;2023-07-30T08:06:38;6.65;;;2.13;;
17812;SDS011;9030;50.792;8.320;2023-07-30T08:09:04;8.75;;;2.42;;
17812;SDS011;9030;50.792;8.320;2023-07-30T08:11:32;9.60;;;2.97;;
17812;SDS011;9030;50.792;8.320;2023-07-30T08:13:59;8.50;;;3.03;;
17812;SDS011;9030;50.792;8.320;2023-07-30T08:16:26;14.40;;;2.78;;
17812;SDS011;9030;50.792;8.320;2023-07-30T08:18:53;13.40;;;2.58;;
17812;SDS011;9030;50.792;8.320;2023-07-30T08:21:20;11.93;;;2.88;;
17812;SDS011;9030;50.792;8.320;2023-07-30T08:23:46;9.55;;;2.58;;
17812;SDS011;9030;50.792;8.320;2023-07-30T08:26:13;10.57;;;2.65;;
17812;SDS011;9030;50.792;8.320;2023-07-30T08:28:41;7.95;;;2.75;;
17812;SDS011;9030;50.792;8.320;2023-07-30T08:31:07;10.82;;;2.90;;
17812;SDS011;9030;50.792;8.320;2023-07-30T08:33:34;11.25;;;2.95;;
17812;SDS011;9030;50.792;8.320;2023-07-30T08:36:01;8.63;;;2.72;;
17812;SDS011;9030;50.792;8.320;2023-07-30T08:38:28;12.70;;;4.07;;
17812;SDS011;9030;50.792;8.320;2023-07-30T08:40:55;13.55;;;2.65;;
17812;SDS011;9030;50.792;8.320;2023-07-30T08:43:22;11.57;;;2.95;;
17812;SDS011;9030;50.792;8.320;2023-07-30T08:45:50;8.63;;;2.47;;
17812;SDS011;9030;50.792;8.320;2023-07-30T08:48:17;12.63;;;3.38;;
17812;SDS011;9030;50.792;8.320;2023-07-30T08:50:44;14.13;;;2.83;;
17812;SDS011;9030;50.792;8.320;2023-07-30T08:53:11;12.02;;;3.28;;
17812;SDS011;9030;50.792;8.320;2023-07-30T08:55:39;10.23;;;3.38;;
17812;SDS011;9030;50.792;8.320;2023-07-30T08:58:07;9.85;;;3.38;;
17812;SDS011;9030;50.792;8.320;2023-07-30T09:00:36;9.73;;;3.05;;
17812;SDS011;9030;50.792;8.320;2023-07-30T09:03:08;9.88;;;2.90;;
17812;SDS011;9030;50.792;8.320;2023-07-30T09:05:35;6.32;;;2.30;;
17812;SDS011;9030;50.792;8.320;2023-07-30T09:08:03;8.40;;;2.38;;
17812;SDS011;9030;50.792;8.320;2023-07-30T09:10:30;6.68;;;2.00;;
17812;SDS011;9030;50.792;8.320;2023-07-30T09:12:57;10.32;;;2.50;;
17812;SDS011;9030;50.792;8.320;2023-07-30T09:15:30;6.00;;;2.55;;
17812;SDS011;9030;50.792;8.320;2023-07-30T09:17:58;9.13;;;2.83;;
17812;SDS011;9030;50.792;8.320;2023-07-30T09:20:26;9.45;;;2.65;;
17812;SDS011;9030;50.792;8.320;2023-07-30T09:22:55;8.30;;;2.92;;
17812;SDS011;9030;50.792;8.320;2023-07-30T09:25:22;6.95;;;2.78;;
17812;SDS011;9030;50.792;8.320;2023-07-30T09:27:49;6.30;;;2.15;;
17812;SDS011;9030;50.792;8.320;2023-07-30T09:30:21;8.75;;;2.53;;
17812;SDS011;9030;50.792;8.320;2023-07-30T09:32:50;9.90;;;3.05;;
17812;SDS011;9030;50.792;8.320;2023-07-30T09:35:18;8.02;;;2.38;;
17812;SDS011;9030;50.792;8.320;2023-07-30T09:37:46;3.83;;;2.00;;
17812;SDS011;9030;50.792;8.320;2023-07-30T09:40:14;6.18;;;2.40;;
17812;SDS011;9030;50.792;8.320;2023-07-30T09:42:43;7.18;;;2.22;;
17812;SDS011;9030;50.792;8.320;2023-07-30T09:45:16;6.45;;;2.55;;
17812;SDS011;9030;50.792;8.320;2023-07-30T09:47:45;8.77;;;2.85;;
17812;SDS011;9030;50.792;8.320;2023-07-30T09:50:13;5.70;;;2.10;;
17812;SDS011;9030;50.792;8.320;2023-07-30T09:52:40;8.80;;;1.90;;
17812;SDS011;9030;50.792;8.320;2023-07-30T09:55:09;7.50;;;2.15;;
17812;SDS011;9030;50.792;8.320;2023-07-30T09:57:36;4.88;;;1.70;;
17812;SDS011;9030;50.792;8.320;2023-07-30T10:00:03;4.65;;;1.85;;
17812;SDS011;9030;50.792;8.320;2023-07-30T10:02:34;3.78;;;1.30;;
17812;SDS011;9030;50.792;8.320;2023-07-30T10:05:04;6.65;;;1.65;;
17812;SDS011;9030;50.792;8.320;2023-07-30T10:07:36;4.82;;;1.50;;
17812;SDS011;9030;50.792;8.320;2023-07-30T10:10:07;5.13;;;1.42;;
17812;SDS011;9030;50.792;8.320;2023-07-30T10:12:36;6.80;;;1.85;;
17812;SDS011;9030;50.792;8.320;2023-07-30T10:15:06;5.72;;;1.73;;
17812;SDS011;9030;50.792;8.320;2023-07-30T10:17:33;5.43;;;2.25;;
17812;SDS011;9030;50.792;8.320;2023-07-30T10:22:51;8.05;;;1.65;;
17812;SDS011;9030;50.792;8.320;2023-07-30T10:25:21;4.63;;;1.50;;
17812;SDS011;9030;50.792;8.320;2023-07-30T10:27:49;5.90;;;1.83;;
17812;SDS011;9030;50.792;8.320;2023-07-30T10:30:17;6.25;;;1.85;;
17812;SDS011;9030;50.792;8.320;2023-07-30T10:32:57;11.95;;;2.05;;
17812;SDS011;9030;50.792;8.320;2023-07-30T10:38:14;5.82;;;1.60;;
17812;SDS011;9030;50.792;8.320;2023-07-30T10:40:43;8.52;;;1.95;;
17812;SDS011;9030;50.792;8.320;2023-07-30T10:43:27;11.05;;;3.22;;
17812;SDS011;9030;50.792;8.320;2023-07-30T10:45:54;8.32;;;3.20;;
17812;SDS011;9030;50.792;8.320;2023-07-30T10:48:28;11.07;;;3.97;;
17812;SDS011;9030;50.792;8.320;2023-07-30T10:50:56;7.85;;;2.95;;
17812;SDS011;9030;50.792;8.320;2023-07-30T10:53:23;6.80;;;2.20;;
17812;SDS011;9030;50.792;8.320;2023-07-30T10:55:51;12.18;;;2.65;;
17812;SDS011;9030;50.792;8.320;2023-07-30T10:58:19;10.82;;;2.10;;
17812;SDS011;9030;50.792;8.320;2023-07-30T11:00:48;10.43;;;3.00;;
17812;SDS011;9030;50.792;8.320;2023-07-30T11:03:15;9.75;;;3.00;;
17812;SDS011;9030;50.792;8.320;2023-07-30T11:05:41;13.65;;;2.15;;
17812;SDS011;9030;50.792;8.320;2023-07-30T11:08:12;11.75;;;3.90;;
17812;SDS011;9030;50.792;8.320;2023-07-30T11:10:42;13.30;;;4.85;;
17812;SDS011;9030;50.792;8.320;2023-07-30T11:13:11;9.38;;;3.20;;
17812;SDS011;9030;50.792;8.320;2023-07-30T11:15:41;9.32;;;2.13;;
17812;SDS011;9030;50.792;8.320;2023-07-30T11:18:08;11.18;;;2.67;;
17812;SDS011;9030;50.792;8.320;2023-07-30T11:20:35;11.52;;;3.28;;
17812;SDS011;9030;50.792;8.320;2023-07-30T11:23:02;9.48;;;2.35;;
17812;SDS011;9030;50.792;8.320;2023-07-30T11:25:44;9.25;;;2.65;;
17812;SDS011;9030;50.792;8.320;2023-07-30T11:28:13;17.92;;;3.40;;
17812;SDS011;9030;50.792;8.320;2023-07-30T11:30:40;13.00;;;2.40;;
17812;SDS011;9030;50.792;8.320;2023-07-30T11:33:06;12.48;;;3.83;;
17812;SDS011;9030;50.792;8.320;2023-07-30T11:35:33;9.32;;;2.20;;
17812;SDS011;9030;50.792;8.320;2023-07-30T11:38:00;9.68;;;3.03;;
17812;SDS011;9030;50.792;8.320;2023-07-30T11:40:27;13.82;;;3.90;;
17812;SDS011;9030;50.792;8.320;2023-07-30T11:42:54;14.60;;;3.40;;
17812;SDS011;9030;50.792;8.320;2023-07-30T11:45:22;9.98;;;2.35;;
17812;SDS011;9030;50.792;8.320;2023-07-30T11:47:51;6.25;;;2.42;;
17812;SDS011;9030;50.792;8.320;2023-07-30T11:50:18;7.65;;;1.80;;
17812;SDS011;9030;50.792;8.320;2023-07-30T11:52:51;14.35;;;3.53;;
17812;SDS011;9030;50.792;8.320;2023-07-30T11:55:18;12.70;;;2.72;;
17812;SDS011;9030;50.792;8.320;2023-07-30T11:57:45;7.38;;;2.08;;
17812;SDS011;9030;50.792;8.320;2023-07-30T12:00:12;8.77;;;2.17;;
17812;SDS011;9030;50.792;8.320;2023-07-30T12:02:41;10.18;;;2.53;;
17812;SDS011;9030;50.792;8.320;2023-07-30T12:05:09;8.57;;;2.00;;
17812;SDS011;9030;50.792;8.320;2023-07-30T12:07:39;8.52;;;2.65;;
17812;SDS011;9030;50.792;8.320;2023-07-30T12:10:06;8.10;;;2.90;;
17812;SDS011;9030;50.792;8.320;2023-07-30T12:12:34;11.13;;;2.75;;
17812;SDS011;9030;50.792;8.320;2023-07-30T12:15:01;9.23;;;2.83;;
17812;SDS011;9030;50.792;8.320;2023-07-30T12:17:28;7.25;;;2.30;;
17812;SDS011;9030;50.792;8.320;2023-07-30T12:19:56;9.90;;;2.67;;
17812;SDS011;9030;50.792;8.320;2023-07-30T12:22:31;10.20;;;2.08;;
17812;SDS011;9030;50.792;8.320;2023-07-30T12:24:59;10.55;;;3.22;;
17812;SDS011;9030;50.792;8.320;2023-07-30T12:27:25;9.50;;;3.47;;
17812;SDS011;9030;50.792;8.320;2023-07-30T12:29:52;13.80;;;3.45;;
17812;SDS011;9030;50.792;8.320;2023-07-30T12:32:19;13.43;;;4.65;;
17812;SDS011;9030;50.792;8.320;2023-07-30T12:34:45;10.85;;;4.07;;
17812;SDS011;9030;50.792;8.320;2023-07-30T12:37:13;7.03;;;2.13;;
17812;SDS011;9030;50.792;8.320;2023-07-30T12:39:40;9.20;;;2.70;;
17812;SDS011;9030;50.792;8.320;2023-07-30T12:42:07;12.73;;;2.88;;
17812;SDS011;9030;50.792;8.320;2023-07-30T12:44:33;12.02;;;2.72;;
17812;SDS011;9030;50.792;8.320;2023-07-30T12:47:00;10.02;;;2.22;;
17812;SDS011;9030;50.792;8.320;2023-07-30T12:49:26;7.85;;;2.30;;
17812;SDS011;9030;50.792;8.320;2023-07-30T12:51:53;11.63;;;2.85;;
17812;SDS011;9030;50.792;8.320;2023-07-30T12:54:21;8.15;;;1.73;;
17812;SDS011;9030;50.792;8.320;2023-07-30T12:56:47;10.13;;;2.08;;
17812;SDS011;9030;50.792;8.320;2023-07-30T12:59:14;7.05;;;2.50;;
17812;SDS011;9030;50.792;8.320;2023-07-30T13:01:41;5.68;;;1.25;;
17812;SDS011;9030;50.792;8.320;2023-07-30T13:04:07;10.52;;;2.60;;
17812;SDS011;9030;50.792;8.320;2023-07-30T13:06:34;10.32;;;2.45;;
17812;SDS011;9030;50.792;8.320;2023-07-30T13:09:00;9.73;;;2.22;;
17812;SDS011;9030;50.792;8.320;2023-07-30T13:11:28;11.93;;;2.25;;
17812;SDS011;9030;50.792;8.320;2023-07-30T13:13:55;7.97;;;2.15;;
17812;SDS011;9030;50.792;8.320;2023-07-30T13:16:22;8.38;;;2.40;;
17812;SDS011;9030;50.792;8.320;2023-07-30T13:18:48;7.07;;;1.90;;
17812;SDS011;9030;50.792;8.320;2023-07-30T13:21:15;9.52;;;2.35;;
17812;SDS011;9030;50.792;8.320;2023-07-30T13:23:42;7.18;;;2.10;;
17812;SDS011;9030;50.792;8.320;2023-07-30T13:26:08;11.25;;;2.20;;
17812;SDS011;9030;50.792;8.320;2023-07-30T13:28:36;8.50;;;1.88;;
17812;SDS011;9030;50.792;8.320;2023-07-30T13:31:03;9.02;;;1.95;;
17812;SDS011;9030;50.792;8.320;2023-07-30T13:33:29;8.52;;;2.63;;
17812;SDS011;9030;50.792;8.320;2023-07-30T13:35:56;13.15;;;2.78;;
17812;SDS011;9030;50.792;8.320;2023-07-30T13:38:23;8.70;;;1.98;;
17812;SDS011;9030;50.792;8.320;2023-07-30T13:40:51;7.60;;;2.70;;
17812;SDS011;9030;50.792;8.320;2023-07-30T13:43:18;5.57;;;1.83;;
17812;SDS011;9030;50.792;8.320;2023-07-30T13:45:46;11.25;;;1.95;;
17812;SDS011;9030;50.792;8.320;2023-07-30T13:48:15;7.05;;;1.98;;
17812;SDS011;9030;50.792;8.320;2023-07-30T13:50:41;8.07;;;1.92;;
17812;SDS011;9030;50.792;8.320;2023-07-30T13:53:08;9.90;;;2.38;;
17812;SDS011;9030;50.792;8.320;2023-07-30T13:55:34;8.20;;;2.00;;
17812;SDS011;9030;50.792;8.320;2023-07-30T13:58:01;9.75;;;2.10;;
17812;SDS011;9030;50.792;8.320;2023-07-30T14:00:29;8.85;;;2.20;;
17812;SDS011;9030;50.792;8.320;2023-07-30T14:02:57;10.05;;;2.17;;
17812;SDS011;9030;50.792;8.320;2023-07-30T14:05:23;6.38;;;1.83;;
17812;SDS011;9030;50.792;8.320;2023-07-30T14:07:50;9.27;;;2.10;;
17812;SDS011;9030;50.792;8.320;2023-07-30T14:10:18;8.00;;;1.90;;
17812;SDS011;9030;50.792;8.320;2023-07-30T14:12:45;10.43;;;1.95;;
17812;SDS011;9030;50.792;8.320;2023-07-30T14:15:12;10.32;;;2.42;;
17812;SDS011;9030;50.792;8.320;2023-07-30T14:17:39;9.20;;;2.25;;
17812;SDS011;9030;50.792;8.320;2023-07-30T14:20:08;6.63;;;1.88;;
17812;SDS011;9030;50.792;8.320;2023-07-30T14:22:35;9.80;;;1.80;;
17812;SDS011;9030;50.792;8.320;2023-07-30T14:25:02;11.88;;;2.38;;
17812;SDS011;9030;50.792;8.320;2023-07-30T14:27:29;6.43;;;1.75;;
17812;SDS011;9030;50.792;8.320;2023-07-30T14:29:55;11.18;;;2.72;;
17812;SDS011;9030;50.792;8.320;2023-07-30T14:32:22;7.35;;;1.92;;
17812;SDS011;9030;50.792;8.320;2023-07-30T14:34:49;8.80;;;2.30;;
17812;SDS011;9030;50.792;8.320;2023-07-30T14:37:17;9.18;;;2.13;;
17812;SDS011;9030;50.792;8.320;2023-07-30T14:39:44;6.65;;;1.70;;
17812;SDS011;9030;50.792;8.320;2023-07-30T14:42:11;9.57;;;2.25;;
17812;SDS011;9030;50.792;8.320;2023-07-30T14:44:37;7.30;;;1.83;;
17812;SDS011;9030;50.792;8.320;2023-07-30T14:47:04;11.52;;;2.63;;
17812;SDS011;9030;50.792;8.320;2023-07-30T14:49:33;6.60;;;2.10;;
17812;SDS011;9030;50.792;8.320;2023-07-30T14:52:00;8.05;;;1.58;;
17812;SDS011;9030;50.792;8.320;2023-07-30T14:54:28;9.88;;;2.08;;
17812;SDS011;9030;50.792;8.320;2023-07-30T14:56:55;9.35;;;2.58;;
17812;SDS011;9030;50.792;8.320;2023-07-30T14:59:21;9.07;;;2.13;;
17812;SDS011;9030;50.792;8.320;2023-07-30T15:01:48;7.22;;;1.77;;